Caradan, Texas
Current Conditions -  °F | °C
As of 8:55 PM on Friday 21 Nov 2014 (Local Time) from KLZZ Reporting Station
Overcast Overcast  
Wind Chill: 65°   Ceiling: 500
Heat Index: 65°   Visibility: NA
Dew Point: 64°   Wind: 5mph
Humidity: 96%   Direction: 120°ESE
Pressure: 30.04"   Gusts: NA
Location:  31.3914°N, 98.5866°W
Report Text: KLZZ 220255Z AUTO 12004KT OVC005 19/18 A3004 RMK AO2 LTG DSNT SE P0002 60002 T01860180 PWINO
Loading
Personal Weather Stations






























Interactive Weather Map New forecast layout! Learn more

10-Day Weather Forecast

Advertisements
Track Severe Weather on mobile